createdAt,value
2018-12-06T00:00:15.405Z,76.75
2018-12-06T00:01:15.401Z,76.86
2018-12-06T00:02:16.002Z,76.54
2018-12-06T00:03:15.384Z,77.06
2018-12-06T00:04:16.320Z,76.96
2018-12-06T00:05:15.929Z,76.75
2018-12-06T00:06:18.957Z,76.33
2018-12-06T00:07:15.339Z,78.00
2018-12-06T00:08:16.908Z,77.37
2018-12-06T00:09:15.342Z,76.86
2018-12-06T00:10:15.284Z,76.54
2018-12-06T00:11:15.297Z,77.27
2018-12-06T00:12:15.273Z,76.86
2018-12-06T00:13:15.262Z,76.75
2018-12-06T00:14:15.256Z,77.58
2018-12-06T00:15:15.269Z,77.48
2018-12-06T00:16:15.233Z,76.65
2018-12-06T00:17:15.902Z,77.27
2018-12-06T00:18:15.214Z,78.00
2018-12-06T00:19:15.188Z,77.37
2018-12-06T00:20:15.205Z,77.89
2018-12-06T00:21:15.202Z,76.65
2018-12-06T00:22:15.173Z,77.69
2018-12-06T00:23:15.158Z,77.41
2018-12-06T00:24:15.147Z,77.41
2018-12-06T00:25:15.135Z,77.48
2018-12-06T00:26:15.149Z,77.51
2018-12-06T00:27:15.128Z,77.58
2018-12-06T00:28:15.097Z,77.51
2018-12-06T00:29:15.089Z,78.14
2018-12-06T00:30:15.079Z,78.14
2018-12-06T00:31:15.089Z,78.31
2018-12-06T00:32:15.059Z,77.89
2018-12-06T00:33:15.057Z,77.48
2018-12-06T00:34:15.052Z,77.69
2018-12-06T00:35:15.023Z,78.10
2018-12-06T00:36:15.906Z,77.51
2018-12-06T00:37:15.021Z,77.93
2018-12-06T00:38:15.008Z,77.72
2018-12-06T00:39:15.006Z,78.14
2018-12-06T00:40:14.971Z,78.03
2018-12-06T00:41:15.963Z,77.93
2018-12-06T00:42:14.992Z,78.24
2018-12-06T00:43:15.008Z,78.24
2018-12-06T00:44:14.924Z,78.34
2018-12-06T00:45:14.932Z,78.03
2018-12-06T00:46:14.914Z,77.89
2018-12-06T00:47:14.982Z,78.03
2018-12-06T00:48:14.892Z,78.24
2018-12-06T00:49:14.887Z,78.66
2018-12-06T00:50:14.871Z,78.03
2018-12-06T00:51:14.861Z,77.89
2018-12-06T00:52:14.851Z,77.93
2018-12-06T00:53:14.859Z,78.03
2018-12-06T00:54:14.852Z,77.89
2018-12-06T00:55:14.835Z,78.03
2018-12-06T00:56:14.809Z,78.03
2018-12-06T00:57:14.812Z,78.24
2018-12-06T00:58:14.784Z,78.03
2018-12-06T00:59:14.782Z,78.03
2018-12-06T01:00:14.763Z,78.45
2018-12-06T01:01:14.760Z,78.49
2018-12-06T01:02:14.763Z,78.87
2018-12-06T01:03:14.741Z,78.49
2018-12-06T01:04:15.903Z,78.87
2018-12-06T01:05:14.733Z,78.45
2018-12-06T01:06:14.689Z,78.24
2018-12-06T01:07:14.716Z,79.39
2018-12-06T01:08:14.699Z,78.45
2018-12-06T01:09:14.669Z,78.56
2018-12-06T01:10:14.674Z,78.03
2018-12-06T01:11:14.642Z,78.56
2018-12-06T01:12:14.649Z,78.24
2018-12-06T01:13:14.621Z,78.45
2018-12-06T01:14:14.659Z,78.14
2018-12-06T01:15:14.627Z,78.45
2018-12-06T01:16:14.617Z,78.45
2018-12-06T01:17:14.576Z,78.56
2018-12-06T01:18:14.574Z,78.45
2018-12-06T01:19:16.437Z,78.56
2018-12-06T01:20:14.544Z,78.77
2018-12-06T01:21:14.537Z,78.66
2018-12-06T01:22:14.558Z,78.56
2018-12-06T01:23:14.538Z,78.24
2018-12-06T01:24:14.502Z,78.56
2018-12-06T01:25:14.496Z,78.66
2018-12-06T01:26:15.430Z,79.01
2018-12-06T01:27:14.471Z,78.56
2018-12-06T01:28:14.464Z,79.01
2018-12-06T01:29:14.481Z,78.66
2018-12-06T01:30:14.450Z,78.45
2018-12-06T01:31:14.451Z,78.56
2018-12-06T01:32:14.420Z,78.49
2018-12-06T01:33:14.950Z,78.45
2018-12-06T01:34:14.393Z,79.08
2018-12-06T01:35:14.412Z,78.56
2018-12-06T01:36:14.381Z,78.87
2018-12-06T01:37:15.953Z,78.45
2018-12-06T01:38:14.351Z,78.56
2018-12-06T01:39:14.350Z,78.45
2018-12-06T01:40:14.343Z,78.14
2018-12-06T01:41:14.363Z,78.56
2018-12-06T01:42:14.320Z,78.69
2018-12-06T01:43:14.318Z,78.87
2018-12-06T01:44:14.946Z,78.87
2018-12-06T01:45:14.293Z,78.34
2018-12-06T01:46:14.298Z,78.45
2018-12-06T01:47:14.261Z,78.34
2018-12-06T01:48:14.248Z,78.45
2018-12-06T01:49:14.246Z,80.12
2018-12-06T01:50:14.241Z,78.56
2018-12-06T01:51:14.225Z,78.56
2018-12-06T01:52:14.229Z,78.66
2018-12-06T01:53:14.200Z,79.18
2018-12-06T01:54:14.190Z,78.66
2018-12-06T01:55:14.184Z,78.00
2018-12-06T01:56:14.203Z,78.03
2018-12-06T01:57:14.164Z,78.56
2018-12-06T01:58:14.181Z,78.10
2018-12-06T01:59:14.163Z,78.10
2018-12-06T02:00:14.157Z,78.52
2018-12-06T02:01:14.171Z,78.00
2018-12-06T02:02:14.178Z,78.31
2018-12-06T02:03:14.110Z,78.14
2018-12-06T02:04:14.086Z,78.31
2018-12-06T02:05:14.094Z,77.93
2018-12-06T02:06:14.077Z,78.20
2018-12-06T02:07:14.074Z,78.00
2018-12-06T02:08:14.058Z,78.00
2018-12-06T02:09:14.026Z,78.20
2018-12-06T02:10:14.027Z,78.10
2018-12-06T02:11:14.014Z,77.62
2018-12-06T02:12:15.950Z,78.20
2018-12-06T02:13:14.025Z,77.51
2018-12-06T02:14:13.976Z,78.00
2018-12-06T02:15:13.967Z,78.20
2018-12-06T02:16:13.961Z,78.20
2018-12-06T02:17:13.947Z,77.48
2018-12-06T02:18:13.939Z,77.89
2018-12-06T02:19:13.940Z,77.69
2018-12-06T02:20:13.915Z,77.89
2018-12-06T02:21:13.893Z,76.75
2018-12-06T02:22:13.889Z,76.75
2018-12-06T02:23:13.875Z,76.86
2018-12-06T02:24:13.931Z,76.75
2018-12-06T02:25:13.868Z,77.58
2018-12-06T02:26:14.441Z,76.65
2018-12-06T02:27:13.832Z,77.27
2018-12-06T02:28:13.844Z,77.69
2018-12-06T02:29:13.814Z,78.00
2018-12-06T02:30:13.823Z,76.86
2018-12-06T02:31:13.798Z,77.69
2018-12-06T02:32:13.804Z,77.89
2018-12-06T02:33:13.838Z,77.79
2018-12-06T02:34:13.787Z,77.79
2018-12-06T02:35:13.752Z,77.69
2018-12-06T02:36:13.793Z,77.65
2018-12-06T02:37:13.741Z,76.65
2018-12-06T02:38:13.711Z,77.48
2018-12-06T02:39:13.706Z,77.37
2018-12-06T02:40:13.695Z,77.69
2018-12-06T02:41:13.775Z,76.65
2018-12-06T02:42:13.694Z,76.82
2018-12-06T02:43:14.392Z,77.44
2018-12-06T02:44:14.389Z,76.23
2018-12-06T02:45:13.644Z,76.65
2018-12-06T02:46:13.629Z,76.43
2018-12-06T02:47:13.642Z,76.54
2018-12-06T02:48:13.625Z,77.48
2018-12-06T02:49:14.398Z,76.43
2018-12-06T02:50:13.597Z,76.65
2018-12-06T02:51:13.581Z,76.65
2018-12-06T02:52:13.623Z,76.43
2018-12-06T02:53:14.404Z,76.86
2018-12-06T02:54:13.570Z,76.43
2018-12-06T02:55:13.546Z,76.43
2018-12-06T02:56:13.531Z,76.86
2018-12-06T02:57:13.519Z,76.65
2018-12-06T02:58:13.526Z,76.86
2018-12-06T02:59:13.617Z,76.96
2018-12-06T03:00:13.501Z,76.65
2018-12-06T03:01:15.448Z,77.17
2018-12-06T03:02:13.461Z,76.82
2018-12-06T03:03:13.451Z,77.34
2018-12-06T03:04:13.471Z,76.86
2018-12-06T03:05:13.434Z,76.43
2018-12-06T03:06:13.448Z,76.43
2018-12-06T03:07:13.411Z,76.96
2018-12-06T03:08:13.403Z,76.86
2018-12-06T03:09:13.391Z,76.86
2018-12-06T03:10:21.584Z,76.51
2018-12-06T03:11:13.387Z,77.17
2018-12-06T03:12:13.349Z,76.65
2018-12-06T03:13:13.338Z,77.48
2018-12-06T03:14:13.350Z,76.96
2018-12-06T03:15:13.334Z,76.23
2018-12-06T03:16:13.338Z,76.72
2018-12-06T03:17:13.298Z,77.06
2018-12-06T03:18:13.279Z,76.86
2018-12-06T03:19:13.274Z,76.54
2018-12-06T03:20:13.261Z,76.43
2018-12-06T03:21:13.277Z,76.65
2018-12-06T03:22:13.243Z,76.86
2018-12-06T03:23:13.280Z,76.54
2018-12-06T03:24:13.238Z,76.43
2018-12-06T03:25:13.208Z,77.48
2018-12-06T03:26:13.210Z,77.13
2018-12-06T03:27:13.197Z,77.17
2018-12-06T03:28:13.190Z,76.86
2018-12-06T03:29:13.185Z,76.86
2018-12-06T03:30:13.161Z,77.37
2018-12-06T03:31:13.157Z,76.86
2018-12-06T03:32:13.141Z,76.65
2018-12-06T03:33:13.147Z,76.54
2018-12-06T03:34:13.246Z,76.86
2018-12-06T03:35:13.152Z,77.17
2018-12-06T03:36:13.123Z,76.65
2018-12-06T03:37:13.088Z,76.51
2018-12-06T03:38:13.078Z,76.51
2018-12-06T03:39:13.071Z,76.61
2018-12-06T03:40:13.100Z,76.02
2018-12-06T03:41:13.052Z,76.23
2018-12-06T03:42:13.033Z,76.09
2018-12-06T03:43:13.028Z,76.92
2018-12-06T03:44:13.023Z,76.65
2018-12-06T03:45:13.039Z,76.23
2018-12-06T03:46:13.004Z,75.71
2018-12-06T03:47:14.948Z,76.43
2018-12-06T03:48:12.987Z,76.40
2018-12-06T03:49:12.971Z,76.09
2018-12-06T03:50:12.960Z,75.15
2018-12-06T03:51:12.991Z,75.88
2018-12-06T03:52:13.933Z,75.98
2018-12-06T03:53:13.927Z,75.46
2018-12-06T03:54:12.905Z,75.15
2018-12-06T03:55:12.916Z,75.36
2018-12-06T03:56:12.925Z,74.84
2018-12-06T03:57:12.888Z,74.74
2018-12-06T03:58:13.448Z,74.21
2018-12-06T03:59:12.863Z,74.63
2018-12-06T04:00:12.871Z,74.63
2018-12-06T04:01:12.852Z,74.21
2018-12-06T04:02:14.481Z,74.63
2018-12-06T04:03:12.828Z,74.63
2018-12-06T04:04:12.818Z,74.63
2018-12-06T04:05:12.816Z,74.21
2018-12-06T04:06:12.799Z,74.32
2018-12-06T04:07:12.777Z,74.63
2018-12-06T04:08:12.770Z,74.53
2018-12-06T04:09:12.755Z,74.21
2018-12-06T04:10:12.730Z,74.01
2018-12-06T04:11:14.490Z,73.87
2018-12-06T04:12:12.999Z,73.90
2018-12-06T04:13:12.752Z,73.69
2018-12-06T04:14:12.741Z,73.49
2018-12-06T04:15:12.753Z,72.86
2018-12-06T04:16:12.688Z,72.83
2018-12-06T04:17:12.695Z,73.25
2018-12-06T04:18:12.660Z,72.72
2018-12-06T04:19:14.520Z,72.41
2018-12-06T04:20:12.668Z,72.52
2018-12-06T04:21:12.634Z,72.20
2018-12-06T04:22:15.491Z,72.10
2018-12-06T04:23:12.615Z,71.89
2018-12-06T04:24:12.582Z,71.86
2018-12-06T04:25:12.583Z,72.00
2018-12-06T04:26:12.581Z,72.31
2018-12-06T04:27:12.568Z,71.89
2018-12-06T04:28:12.566Z,71.34
2018-12-06T04:29:12.530Z,71.97
2018-12-06T04:30:12.525Z,70.92
2018-12-06T04:31:12.534Z,71.23
2018-12-06T04:32:12.502Z,71.23
2018-12-06T04:33:12.498Z,70.72
2018-12-06T04:34:13.986Z,70.82
2018-12-06T04:35:12.469Z,70.72
2018-12-06T04:36:13.990Z,70.30
2018-12-06T04:37:12.527Z,71.23
2018-12-06T04:38:12.449Z,70.61
2018-12-06T04:39:13.449Z,70.61
2018-12-06T04:40:12.406Z,71.03
2018-12-06T04:41:13.412Z,70.51
2018-12-06T04:42:12.397Z,70.61
2018-12-06T04:43:12.404Z,70.82
2018-12-06T04:44:12.382Z,70.27
2018-12-06T04:45:12.379Z,70.79
2018-12-06T04:46:12.362Z,70.58
2018-12-06T04:47:14.256Z,69.85
2018-12-06T04:48:12.342Z,70.58
2018-12-06T04:49:12.320Z,70.58
2018-12-06T04:50:12.316Z,70.27
2018-12-06T04:51:12.307Z,70.58
2018-12-06T04:52:13.310Z,70.27
2018-12-06T04:53:12.974Z,70.79
2018-12-06T04:54:12.264Z,69.74
2018-12-06T04:55:12.304Z,70.37
2018-12-06T04:56:12.255Z,70.79
2018-12-06T04:57:12.240Z,69.74
2018-12-06T04:58:12.239Z,70.48
2018-12-06T04:59:13.972Z,70.48
2018-12-06T05:00:12.223Z,70.48
2018-12-06T05:01:12.206Z,70.37
2018-12-06T05:02:12.178Z,70.48
2018-12-06T05:03:12.193Z,70.06
2018-12-06T05:04:12.158Z,69.96
2018-12-06T05:05:12.146Z,70.37
2018-12-06T05:06:12.154Z,69.96
2018-12-06T05:07:12.147Z,70.37
2018-12-06T05:08:12.105Z,69.12
2018-12-06T05:09:12.108Z,69.85
2018-12-06T05:10:12.099Z,69.96
2018-12-06T05:11:12.097Z,70.17
2018-12-06T05:12:12.074Z,70.27
2018-12-06T05:13:12.070Z,70.06
2018-12-06T05:14:12.079Z,70.34
2018-12-06T05:15:12.050Z,69.64
2018-12-06T05:16:12.032Z,69.33
2018-12-06T05:17:12.021Z,69.85
2018-12-06T05:18:12.007Z,69.12
2018-12-06T05:19:12.006Z,69.12
2018-12-06T05:20:13.992Z,69.12
2018-12-06T05:21:11.986Z,69.85
2018-12-06T05:22:11.995Z,69.43
2018-12-06T05:23:13.488Z,69.23
2018-12-06T05:24:11.950Z,70.37
2018-12-06T05:25:13.469Z,69.30
2018-12-06T05:26:11.943Z,69.20
2018-12-06T05:27:11.921Z,68.81
2018-12-06T05:28:12.897Z,69.51
2018-12-06T05:29:11.889Z,68.99
2018-12-06T05:30:11.896Z,68.57
2018-12-06T05:31:11.866Z,68.68
2018-12-06T05:32:11.900Z,68.88
2018-12-06T05:33:11.848Z,68.88
2018-12-06T05:34:11.834Z,68.78
2018-12-06T05:35:11.844Z,68.99
2018-12-06T05:36:11.843Z,68.99
2018-12-06T05:37:11.924Z,68.47
2018-12-06T05:38:11.794Z,68.57
2018-12-06T05:39:11.784Z,68.37
2018-12-06T05:40:11.767Z,68.37
2018-12-06T05:41:11.762Z,68.37
2018-12-06T05:42:11.752Z,68.05
2018-12-06T05:43:11.746Z,68.26
2018-12-06T05:44:11.727Z,68.05
2018-12-06T05:45:12.468Z,67.95
2018-12-06T05:46:11.703Z,67.95
2018-12-06T05:47:11.721Z,68.02
2018-12-06T05:48:11.689Z,67.95
2018-12-06T05:49:11.671Z,67.33
2018-12-06T05:50:11.664Z,66.99
2018-12-06T05:51:11.650Z,67.22
2018-12-06T05:52:11.649Z,67.74
2018-12-06T05:53:12.674Z,67.85
2018-12-06T05:54:11.646Z,67.19
2018-12-06T05:55:11.610Z,68.02
2018-12-06T05:56:13.763Z,67.12
2018-12-06T05:57:13.780Z,66.88
2018-12-06T05:58:11.585Z,66.88
2018-12-06T05:59:11.595Z,66.88
2018-12-06T06:00:11.641Z,67.71
2018-12-06T06:01:11.539Z,66.78
2018-12-06T06:02:11.546Z,66.57
2018-12-06T06:03:11.520Z,65.84
2018-12-06T06:04:14.487Z,66.78
2018-12-06T06:05:11.509Z,66.67
2018-12-06T06:06:11.489Z,65.53
2018-12-06T06:07:11.480Z,66.05
2018-12-06T06:08:11.465Z,66.25
2018-12-06T06:09:11.484Z,66.25
2018-12-06T06:10:11.474Z,66.05
2018-12-06T06:11:12.981Z,65.84
2018-12-06T06:12:11.422Z,66.05
2018-12-06T06:13:11.408Z,65.84
2018-12-06T06:14:12.424Z,65.84
2018-12-06T06:15:11.408Z,65.32
2018-12-06T06:16:11.397Z,65.94
2018-12-06T06:17:11.388Z,66.25
2018-12-06T06:18:11.376Z,66.25
2018-12-06T06:19:11.356Z,66.02
2018-12-06T06:20:12.985Z,65.11
2018-12-06T06:21:11.380Z,65.01
2018-12-06T06:22:11.363Z,65.22
2018-12-06T06:23:11.984Z,65.42
2018-12-06T06:24:18.478Z,65.53
2018-12-06T06:25:11.280Z,65.50
2018-12-06T06:26:11.276Z,65.22
2018-12-06T06:27:11.298Z,65.19
2018-12-06T06:28:11.963Z,65.39
2018-12-06T06:29:11.252Z,66.85
2018-12-06T06:30:11.963Z,66.75
2018-12-06T06:31:11.996Z,66.30
2018-12-06T06:32:11.220Z,65.68
2018-12-06T06:33:11.202Z,65.37
2018-12-06T06:34:11.203Z,64.64
2018-12-06T06:35:11.179Z,65.26
2018-12-06T06:36:11.163Z,65.47
2018-12-06T06:37:11.155Z,65.47
2018-12-06T06:38:11.141Z,65.58
2018-12-06T06:39:11.522Z,65.47
2018-12-06T06:40:11.121Z,65.06
2018-12-06T06:41:19.277Z,65.68
2018-12-06T06:42:19.308Z,65.06
2018-12-06T06:43:20.104Z,65.26
2018-12-06T06:44:19.653Z,65.58
2018-12-06T06:45:11.075Z,64.85
2018-12-06T06:46:11.624Z,64.54
2018-12-06T06:47:11.044Z,65.78
2018-12-06T06:48:11.030Z,65.58
2018-12-06T06:49:14.023Z,65.37
2018-12-06T06:50:11.037Z,65.58
2018-12-06T06:51:11.011Z,65.47
2018-12-06T06:52:10.984Z,65.37
2018-12-06T06:53:10.980Z,65.47
2018-12-06T06:54:10.972Z,65.26
2018-12-06T06:55:10.958Z,66.20
2018-12-06T06:56:10.974Z,66.82
2018-12-06T06:57:11.938Z,65.68
2018-12-06T06:58:10.936Z,65.78
2018-12-06T06:59:10.914Z,65.58
2018-12-06T07:00:10.913Z,65.99
2018-12-06T07:01:10.921Z,66.58
2018-12-06T07:02:10.905Z,64.75
2018-12-06T07:03:11.598Z,65.58
2018-12-06T07:04:10.871Z,65.16
2018-12-06T07:05:10.857Z,64.54
2018-12-06T07:06:13.164Z,64.64
2018-12-06T07:07:10.868Z,65.99
2018-12-06T07:08:11.619Z,65.89
2018-12-06T07:09:10.808Z,65.78
2018-12-06T07:10:10.809Z,65.78
2018-12-06T07:11:10.803Z,65.47
2018-12-06T07:12:10.807Z,66.30
2018-12-06T07:13:10.788Z,66.06
2018-12-06T07:14:10.777Z,65.99
2018-12-06T07:15:10.763Z,65.96
2018-12-06T07:16:10.749Z,65.89
2018-12-06T07:17:10.760Z,65.47
2018-12-06T07:18:10.750Z,64.75
2018-12-06T07:19:10.710Z,65.86
2018-12-06T07:20:10.710Z,65.89
2018-12-06T07:21:10.706Z,65.47
2018-12-06T07:22:10.678Z,65.78
2018-12-06T07:23:10.722Z,65.37
2018-12-06T07:24:10.701Z,64.64
2018-12-06T07:25:10.697Z,65.89
2018-12-06T07:26:10.661Z,66.38
2018-12-06T07:27:10.629Z,65.99
2018-12-06T07:28:10.615Z,65.37
2018-12-06T07:29:13.099Z,65.58
2018-12-06T07:30:12.695Z,65.47
2018-12-06T07:31:10.603Z,65.58
2018-12-06T07:32:10.601Z,65.58
2018-12-06T07:33:10.602Z,65.37
2018-12-06T07:34:10.583Z,65.37
2018-12-06T07:35:10.553Z,65.34
2018-12-06T07:36:12.154Z,64.54
2018-12-06T07:37:10.534Z,64.64
2018-12-06T07:38:17.646Z,64.54
2018-12-06T07:39:13.178Z,64.85
2018-12-06T07:40:10.556Z,65.99
2018-12-06T07:41:10.521Z,65.58
2018-12-06T07:42:10.541Z,65.47
2018-12-06T07:43:10.460Z,65.16
2018-12-06T07:44:17.577Z,64.75
2018-12-06T07:45:18.078Z,65.06
2018-12-06T07:46:10.432Z,64.95
2018-12-06T07:47:18.591Z,65.78
2018-12-06T07:48:17.606Z,65.34
2018-12-06T07:49:17.523Z,64.61
2018-12-06T07:50:17.550Z,65.37
2018-12-06T07:51:17.535Z,64.33
2018-12-06T07:52:10.359Z,65.16
2018-12-06T07:53:17.587Z,64.72
2018-12-06T07:54:18.544Z,64.40
2018-12-06T07:55:10.320Z,64.64
2018-12-06T07:56:10.389Z,64.51
2018-12-06T07:57:10.302Z,65.44
2018-12-06T07:58:10.313Z,64.30
2018-12-06T07:59:10.282Z,64.61
2018-12-06T08:00:11.036Z,64.51
2018-12-06T08:01:10.256Z,64.43
2018-12-06T08:02:10.260Z,63.57
2018-12-06T08:03:10.240Z,63.81
2018-12-06T08:04:10.235Z,64.51
2018-12-06T08:05:10.213Z,63.68
2018-12-06T08:06:11.004Z,63.37
2018-12-06T08:07:10.207Z,62.95
2018-12-06T08:08:10.211Z,63.68
2018-12-06T08:09:10.176Z,63.16
2018-12-06T08:10:10.190Z,63.06
2018-12-06T08:11:10.184Z,63.34
2018-12-06T08:12:11.020Z,62.92
2018-12-06T08:13:10.154Z,63.02
2018-12-06T08:14:10.164Z,62.92
2018-12-06T08:15:10.136Z,62.19
2018-12-06T08:16:10.146Z,61.78
2018-12-06T08:17:10.095Z,62.27
2018-12-06T08:18:10.103Z,61.96
2018-12-06T08:19:10.101Z,61.44
2018-12-06T08:20:10.062Z,62.06
2018-12-06T08:21:12.057Z,61.96
2018-12-06T08:22:10.052Z,61.76
2018-12-06T08:23:10.041Z,62.06
2018-12-06T08:24:10.047Z,61.65
2018-12-06T08:25:10.021Z,62.30
2018-12-06T08:26:10.001Z,61.44
2018-12-06T08:27:11.537Z,61.76
2018-12-06T08:28:10.519Z,60.51
2018-12-06T08:29:10.016Z,61.76
2018-12-06T08:30:10.952Z,61.03
2018-12-06T08:31:09.940Z,61.41
2018-12-06T08:32:09.945Z,60.17
2018-12-06T08:33:09.927Z,61.83
2018-12-06T08:34:09.918Z,60.79
2018-12-06T08:35:09.937Z,59.66
2018-12-06T08:36:09.895Z,59.55
2018-12-06T08:37:09.882Z,59.78
2018-12-06T08:38:09.868Z,60.79
2018-12-06T08:39:09.872Z,60.27
2018-12-06T08:40:09.859Z,59.55
2018-12-06T08:41:11.553Z,60.06
2018-12-06T08:42:09.829Z,59.94
2018-12-06T08:43:09.813Z,58.93
2018-12-06T08:44:09.841Z,59.66
2018-12-06T08:45:09.804Z,59.96
2018-12-06T08:46:09.784Z,60.66
2018-12-06T08:47:09.808Z,59.94
2018-12-06T08:48:10.776Z,59.31
2018-12-06T08:49:09.756Z,58.59
2018-12-06T08:50:09.746Z,60.77
2018-12-06T08:51:09.765Z,60.25
2018-12-06T08:52:09.719Z,58.80
2018-12-06T08:53:09.754Z,59.83
2018-12-06T08:54:09.727Z,59.19
2018-12-06T08:55:09.700Z,60.04
2018-12-06T08:56:09.693Z,58.90
2018-12-06T08:57:09.669Z,59.11
2018-12-06T08:58:10.524Z,58.80
2018-12-06T08:59:09.665Z,59.31
2018-12-06T09:00:09.643Z,59.19
2018-12-06T09:01:09.639Z,59.00
2018-12-06T09:02:09.623Z,58.98
2018-12-06T09:03:09.616Z,58.90
2018-12-06T09:04:10.649Z,58.98
2018-12-06T09:05:09.589Z,58.80
2018-12-06T09:06:09.571Z,59.11
2018-12-06T09:07:09.562Z,58.48
2018-12-06T09:08:09.541Z,58.59
2018-12-06T09:09:09.558Z,58.38
2018-12-06T09:10:09.566Z,58.77
2018-12-06T09:11:09.565Z,59.11
2018-12-06T09:12:10.528Z,59.19
2018-12-06T09:13:10.512Z,58.36
2018-12-06T09:14:09.487Z,58.87
2018-12-06T09:15:11.059Z,59.19
2018-12-06T09:16:09.464Z,59.08
2018-12-06T09:17:09.472Z,58.36
2018-12-06T09:18:09.443Z,58.87
2018-12-06T09:19:09.447Z,59.19
2018-12-06T09:20:09.425Z,59.19
2018-12-06T09:21:09.432Z,59.08
2018-12-06T09:22:09.432Z,58.67
2018-12-06T09:23:09.410Z,59.19
2018-12-06T09:24:09.380Z,58.98
2018-12-06T09:25:09.366Z,58.48
2018-12-06T09:26:09.360Z,58.46
2018-12-06T09:27:11.049Z,58.90
2018-12-06T09:28:09.372Z,58.56
2018-12-06T09:29:09.333Z,58.56
2018-12-06T09:30:09.318Z,59.50
2018-12-06T09:31:09.318Z,58.98
2018-12-06T09:32:09.324Z,59.39
2018-12-06T09:33:10.002Z,58.46
2018-12-06T09:34:09.275Z,59.29
2018-12-06T09:35:09.260Z,58.67
2018-12-06T09:36:09.264Z,59.29
2018-12-06T09:37:09.237Z,58.67
2018-12-06T09:38:09.282Z,58.67
2018-12-06T09:39:09.231Z,58.77
2018-12-06T09:40:09.206Z,58.67
2018-12-06T09:41:09.198Z,58.98
2018-12-06T09:42:09.195Z,59.16
2018-12-06T09:43:09.173Z,58.67
2018-12-06T09:44:09.181Z,58.77
2018-12-06T09:45:09.159Z,59.91
2018-12-06T09:46:09.147Z,59.16
2018-12-06T09:47:09.135Z,59.26
2018-12-06T09:49:04.748Z,59.29
2018-12-06T09:50:02.724Z,59.19
2018-12-06T09:51:01.014Z,58.56
2018-12-06T09:52:01.698Z,58.77
2018-12-06T09:53:00.924Z,58.77
2018-12-06T09:54:00.918Z,58.46
2018-12-06T09:55:01.250Z,58.98
2018-12-06T09:56:02.737Z,59.50
2018-12-06T09:57:00.870Z,58.98
2018-12-06T09:58:00.883Z,58.74
2018-12-06T09:59:00.858Z,58.23
2018-12-06T10:00:01.666Z,58.74
2018-12-06T10:01:00.842Z,58.54
2018-12-06T10:02:00.837Z,58.67
2018-12-06T10:03:00.832Z,58.64
2018-12-06T10:04:00.823Z,59.26
2018-12-06T10:05:00.794Z,59.26
2018-12-06T10:06:00.832Z,58.64
2018-12-06T10:07:00.780Z,58.72
2018-12-06T10:08:01.776Z,59.23
2018-12-06T10:09:03.780Z,58.72
2018-12-06T10:10:00.791Z,59.13
2018-12-06T10:11:00.761Z,58.51
2018-12-06T10:12:04.232Z,58.51
2018-12-06T10:13:00.708Z,59.13
2018-12-06T10:14:02.262Z,59.03
2018-12-06T10:15:00.690Z,58.51
2018-12-06T10:16:00.698Z,59.23
2018-12-06T10:17:00.747Z,58.92
2018-12-06T10:18:03.284Z,58.92
2018-12-06T10:19:03.245Z,58.61
2018-12-06T10:20:00.645Z,58.61
2018-12-06T10:21:00.654Z,59.44
2018-12-06T10:22:00.665Z,59.95
2018-12-06T10:23:00.617Z,59.13
2018-12-06T10:24:00.652Z,58.92
2018-12-06T10:25:01.257Z,58.79
2018-12-06T10:26:03.239Z,58.59
2018-12-06T10:27:02.213Z,58.38
2018-12-06T10:28:01.191Z,58.79
2018-12-06T10:29:00.559Z,58.59
2018-12-06T10:30:00.540Z,58.48
2018-12-06T10:31:03.229Z,59.31
2018-12-06T10:32:00.523Z,59.00
2018-12-06T10:33:00.506Z,59.20
2018-12-06T10:34:00.495Z,58.59
2018-12-06T10:35:00.500Z,59.20
2018-12-06T10:36:00.473Z,58.28
2018-12-06T10:37:02.239Z,58.48
2018-12-06T10:38:00.452Z,58.79
2018-12-06T10:39:00.457Z,59.00
2018-12-06T10:40:02.238Z,58.92
2018-12-06T10:41:00.422Z,59.64
2018-12-06T10:42:01.255Z,59.85
2018-12-06T10:43:00.415Z,59.62
2018-12-06T10:44:00.399Z,58.89
2018-12-06T10:45:00.413Z,58.48
2018-12-06T10:46:00.363Z,59.10
2018-12-06T10:47:07.529Z,60.14
2018-12-06T10:48:08.334Z,59.62
2018-12-06T10:49:00.331Z,59.20
2018-12-06T10:50:08.479Z,58.97
2018-12-06T10:51:07.701Z,58.38
2018-12-06T10:52:00.298Z,58.69
2018-12-06T10:53:00.313Z,60.55
2018-12-06T10:54:00.278Z,59.49
2018-12-06T10:55:00.281Z,58.76
2018-12-06T10:56:00.276Z,59.49
2018-12-06T10:57:00.255Z,58.66
2018-12-06T10:58:00.238Z,59.90
2018-12-06T10:59:00.220Z,58.66
2018-12-06T11:00:01.884Z,59.59
2018-12-06T11:01:00.202Z,59.18
2018-12-06T11:02:01.206Z,59.05
2018-12-06T11:03:00.180Z,58.35
2018-12-06T11:04:00.184Z,58.45
2018-12-06T11:05:00.171Z,59.49
2018-12-06T11:06:00.885Z,58.66
2018-12-06T11:07:01.887Z,58.97
2018-12-06T11:08:00.163Z,58.45
2018-12-06T11:09:00.117Z,59.90
2018-12-06T11:10:00.114Z,59.49
2018-12-06T11:11:00.096Z,60.11
2018-12-06T11:12:00.111Z,59.69
2018-12-06T11:13:00.087Z,60.11
2018-12-06T11:14:01.946Z,59.69
2018-12-06T11:15:00.063Z,59.80
2018-12-06T11:16:00.094Z,60.63
2018-12-06T11:17:00.029Z,60.00
2018-12-06T11:18:00.064Z,60.31
2018-12-06T11:19:00.074Z,59.56
2018-12-06T11:20:00.084Z,60.28
2018-12-06T11:20:59.998Z,59.98
2018-12-06T11:22:01.940Z,62.66
2018-12-06T11:22:59.994Z,62.46
2018-12-06T11:23:59.967Z,60.47
2018-12-06T11:24:59.987Z,59.74
2018-12-06T11:25:59.970Z,59.84
2018-12-06T11:26:59.934Z,59.25
2018-12-06T11:27:59.935Z,59.67
2018-12-06T11:29:01.887Z,60.60
2018-12-06T11:29:59.914Z,60.18
2018-12-06T11:30:59.912Z,60.49
2018-12-06T11:32:00.927Z,60.05
2018-12-06T11:32:59.870Z,60.36
2018-12-06T11:33:59.873Z,60.26
2018-12-06T11:34:59.863Z,60.26
2018-12-06T11:36:01.402Z,60.26
2018-12-06T11:36:59.846Z,60.26
2018-12-06T11:37:59.818Z,60.67
2018-12-06T11:38:59.803Z,60.26
2018-12-06T11:39:59.790Z,59.77
2018-12-06T11:40:59.804Z,60.98
2018-12-06T11:41:59.818Z,60.57
2018-12-06T11:43:00.367Z,60.36
2018-12-06T11:43:59.758Z,61.29
2018-12-06T11:44:59.764Z,60.88
2018-12-06T11:46:00.390Z,61.19
2018-12-06T11:46:59.756Z,61.08
2018-12-06T11:47:59.723Z,61.19
2018-12-06T11:48:59.742Z,60.33
2018-12-06T11:49:59.711Z,61.60
2018-12-06T11:50:59.695Z,61.40
2018-12-06T11:51:59.687Z,61.26
2018-12-06T11:52:59.679Z,61.08
2018-12-06T11:53:59.656Z,60.98
2018-12-06T11:54:59.657Z,61.40
2018-12-06T11:55:59.630Z,61.50
2018-12-06T11:56:59.646Z,61.80
2018-12-06T11:58:00.395Z,61.80
2018-12-06T11:58:59.620Z,61.50
2018-12-06T11:59:59.582Z,61.70
2018-12-06T12:00:59.608Z,62.43
2018-12-06T12:01:59.557Z,61.80
2018-12-06T12:02:59.550Z,61.47
2018-12-06T12:03:59.540Z,61.88
2018-12-06T12:04:59.528Z,62.01
2018-12-06T12:05:59.530Z,62.12
2018-12-06T12:06:59.500Z,61.91
2018-12-06T12:07:59.503Z,62.22
2018-12-06T12:08:59.489Z,62.63
2018-12-06T12:09:59.492Z,62.50
2018-12-06T12:10:59.478Z,62.19
2018-12-06T12:11:59.470Z,62.32
2018-12-06T12:12:59.446Z,63.56
2018-12-06T12:13:59.454Z,63.56
2018-12-06T12:14:59.420Z,62.40
2018-12-06T12:15:59.412Z,62.50
2018-12-06T12:16:59.438Z,63.01
2018-12-06T12:17:59.405Z,63.12
2018-12-06T12:18:59.383Z,63.56
2018-12-06T12:19:59.448Z,63.25
2018-12-06T12:20:59.369Z,63.04
2018-12-06T12:21:59.353Z,63.22
2018-12-06T12:22:59.345Z,63.74
2018-12-06T12:23:59.354Z,62.81
2018-12-06T12:24:59.312Z,63.12
2018-12-06T12:25:59.299Z,62.92
2018-12-06T12:26:59.891Z,63.95
2018-12-06T12:27:59.298Z,63.32
2018-12-06T12:28:59.277Z,63.95
2018-12-06T12:29:59.273Z,63.84
2018-12-06T12:30:59.262Z,63.97
2018-12-06T12:31:59.235Z,64.56
2018-12-06T12:32:59.230Z,63.95
2018-12-06T12:33:59.217Z,64.36
2018-12-06T12:34:59.253Z,64.15
2018-12-06T12:35:59.190Z,65.21
2018-12-06T12:36:59.181Z,64.36
2018-12-06T12:37:59.175Z,64.36
2018-12-06T12:38:59.257Z,64.04
2018-12-06T12:39:59.161Z,64.25
2018-12-06T12:40:59.155Z,64.98
2018-12-06T12:41:59.175Z,65.28
2018-12-06T12:42:59.133Z,64.87
2018-12-06T12:43:59.107Z,65.18
2018-12-06T12:44:59.116Z,65.08
2018-12-06T12:45:59.119Z,65.39
2018-12-06T12:46:59.090Z,64.98
2018-12-06T12:47:59.074Z,65.39
2018-12-06T12:48:59.058Z,76.59
2018-12-06T12:49:59.046Z,69.73
2018-12-06T12:50:59.043Z,64.06
2018-12-06T12:51:59.050Z,64.17
2018-12-06T12:52:59.031Z,64.06